sensor_id;sensor_type;location;lat;lon;timestamp;P1;durP1;ratioP1;P2;durP2;ratioP2
10894;SDS011;5500;49.886;8.074;2022-08-21T00:01:02;5.47;;;3.00;;
10894;SDS011;5500;49.886;8.074;2022-08-21T00:03:32;7.17;;;3.10;;
10894;SDS011;5500;49.886;8.074;2022-08-21T00:06:00;6.77;;;2.70;;
10894;SDS011;5500;49.886;8.074;2022-08-21T00:08:41;5.60;;;2.90;;
10894;SDS011;5500;49.886;8.074;2022-08-21T00:11:10;6.50;;;2.67;;
10894;SDS011;5500;49.886;8.074;2022-08-21T00:13:40;6.37;;;3.30;;
10894;SDS011;5500;49.886;8.074;2022-08-21T00:16:08;4.83;;;2.80;;
10894;SDS011;5500;49.886;8.074;2022-08-21T00:18:37;7.27;;;3.03;;
10894;SDS011;5500;49.886;8.074;2022-08-21T00:21:05;6.57;;;3.10;;
10894;SDS011;5500;49.886;8.074;2022-08-21T00:23:33;5.40;;;2.80;;
10894;SDS011;5500;49.886;8.074;2022-08-21T00:26:02;7.27;;;2.77;;
10894;SDS011;5500;49.886;8.074;2022-08-21T00:28:31;7.70;;;3.17;;
10894;SDS011;5500;49.886;8.074;2022-08-21T00:30:59;10.70;;;3.30;;
10894;SDS011;5500;49.886;8.074;2022-08-21T00:33:26;5.83;;;3.10;;
10894;SDS011;5500;49.886;8.074;2022-08-21T00:35:54;6.03;;;2.80;;
10894;SDS011;5500;49.886;8.074;2022-08-21T00:38:22;7.20;;;2.73;;
10894;SDS011;5500;49.886;8.074;2022-08-21T00:40:52;8.97;;;3.33;;
10894;SDS011;5500;49.886;8.074;2022-08-21T00:43:23;6.67;;;3.07;;
10894;SDS011;5500;49.886;8.074;2022-08-21T00:45:52;7.40;;;3.10;;
10894;SDS011;5500;49.886;8.074;2022-08-21T00:48:19;4.67;;;2.80;;
10894;SDS011;5500;49.886;8.074;2022-08-21T00:50:48;6.43;;;2.77;;
10894;SDS011;5500;49.886;8.074;2022-08-21T00:53:19;6.77;;;3.03;;
10894;SDS011;5500;49.886;8.074;2022-08-21T00:55:47;8.03;;;3.27;;
10894;SDS011;5500;49.886;8.074;2022-08-21T00:58:16;6.70;;;2.50;;
10894;SDS011;5500;49.886;8.074;2022-08-21T01:00:47;6.03;;;2.70;;
10894;SDS011;5500;49.886;8.074;2022-08-21T01:03:18;6.80;;;2.70;;
10894;SDS011;5500;49.886;8.074;2022-08-21T01:05:49;9.50;;;3.17;;
10894;SDS011;5500;49.886;8.074;2022-08-21T01:08:17;9.70;;;3.33;;
10894;SDS011;5500;49.886;8.074;2022-08-21T01:10:46;7.37;;;3.10;;
10894;SDS011;5500;49.886;8.074;2022-08-21T01:13:20;7.87;;;3.20;;
10894;SDS011;5500;49.886;8.074;2022-08-21T01:15:51;5.47;;;2.53;;
10894;SDS011;5500;49.886;8.074;2022-08-21T01:18:20;6.60;;;3.13;;
10894;SDS011;5500;49.886;8.074;2022-08-21T01:21:03;4.37;;;2.57;;
10894;SDS011;5500;49.886;8.074;2022-08-21T01:23:33;6.67;;;2.80;;
10894;SDS011;5500;49.886;8.074;2022-08-21T01:26:01;5.67;;;3.13;;
10894;SDS011;5500;49.886;8.074;2022-08-21T01:28:29;7.60;;;3.27;;
10894;SDS011;5500;49.886;8.074;2022-08-21T01:30:58;7.47;;;2.60;;
10894;SDS011;5500;49.886;8.074;2022-08-21T01:33:28;4.37;;;2.63;;
10894;SDS011;5500;49.886;8.074;2022-08-21T01:35:56;6.20;;;2.47;;
10894;SDS011;5500;49.886;8.074;2022-08-21T01:38:25;10.90;;;3.17;;
10894;SDS011;5500;49.886;8.074;2022-08-21T01:40:54;7.00;;;3.00;;
10894;SDS011;5500;49.886;8.074;2022-08-21T01:43:22;7.80;;;3.03;;
10894;SDS011;5500;49.886;8.074;2022-08-21T01:46:04;8.20;;;3.13;;
10894;SDS011;5500;49.886;8.074;2022-08-21T01:48:32;5.37;;;3.07;;
10894;SDS011;5500;49.886;8.074;2022-08-21T01:51:00;5.37;;;2.90;;
10894;SDS011;5500;49.886;8.074;2022-08-21T01:53:29;6.33;;;3.30;;
10894;SDS011;5500;49.886;8.074;2022-08-21T01:55:59;7.33;;;3.13;;
10894;SDS011;5500;49.886;8.074;2022-08-21T01:58:27;5.97;;;2.90;;
10894;SDS011;5500;49.886;8.074;2022-08-21T02:00:55;6.10;;;3.03;;
10894;SDS011;5500;49.886;8.074;2022-08-21T02:03:23;4.93;;;3.10;;
10894;SDS011;5500;49.886;8.074;2022-08-21T02:06:01;7.33;;;3.47;;
10894;SDS011;5500;49.886;8.074;2022-08-21T02:08:31;4.00;;;2.97;;
10894;SDS011;5500;49.886;8.074;2022-08-21T02:10:59;8.73;;;3.50;;
10894;SDS011;5500;49.886;8.074;2022-08-21T02:13:26;5.97;;;3.00;;
10894;SDS011;5500;49.886;8.074;2022-08-21T02:15:54;4.57;;;2.67;;
10894;SDS011;5500;49.886;8.074;2022-08-21T02:18:22;8.50;;;3.10;;
10894;SDS011;5500;49.886;8.074;2022-08-21T02:20:50;5.53;;;3.37;;
10894;SDS011;5500;49.886;8.074;2022-08-21T02:23:22;8.07;;;2.83;;
10894;SDS011;5500;49.886;8.074;2022-08-21T02:25:53;9.73;;;3.40;;
10894;SDS011;5500;49.886;8.074;2022-08-21T02:28:21;5.17;;;3.07;;
10894;SDS011;5500;49.886;8.074;2022-08-21T02:30:50;7.53;;;3.13;;
10894;SDS011;5500;49.886;8.074;2022-08-21T02:33:18;6.43;;;3.20;;
10894;SDS011;5500;49.886;8.074;2022-08-21T02:35:46;6.03;;;2.90;;
10894;SDS011;5500;49.886;8.074;2022-08-21T02:38:16;4.87;;;2.73;;
10894;SDS011;5500;49.886;8.074;2022-08-21T02:40:46;6.27;;;2.70;;
10894;SDS011;5500;49.886;8.074;2022-08-21T02:43:18;5.67;;;3.00;;
10894;SDS011;5500;49.886;8.074;2022-08-21T02:45:46;6.00;;;2.90;;
10894;SDS011;5500;49.886;8.074;2022-08-21T02:48:15;7.13;;;2.93;;
10894;SDS011;5500;49.886;8.074;2022-08-21T02:50:45;5.83;;;2.90;;
10894;SDS011;5500;49.886;8.074;2022-08-21T02:53:15;8.37;;;3.13;;
10894;SDS011;5500;49.886;8.074;2022-08-21T02:55:44;6.03;;;2.90;;
10894;SDS011;5500;49.886;8.074;2022-08-21T02:58:16;7.47;;;2.87;;
10894;SDS011;5500;49.886;8.074;2022-08-21T03:00:46;7.13;;;3.17;;
10894;SDS011;5500;49.886;8.074;2022-08-21T03:03:14;4.87;;;2.80;;
10894;SDS011;5500;49.886;8.074;2022-08-21T03:05:42;7.73;;;2.67;;
10894;SDS011;5500;49.886;8.074;2022-08-21T03:08:11;6.03;;;3.10;;
10894;SDS011;5500;49.886;8.074;2022-08-21T03:10:42;4.00;;;2.60;;
10894;SDS011;5500;49.886;8.074;2022-08-21T03:13:12;8.17;;;2.93;;
10894;SDS011;5500;49.886;8.074;2022-08-21T03:15:43;6.37;;;2.93;;
10894;SDS011;5500;49.886;8.074;2022-08-21T03:18:11;5.40;;;2.67;;
10894;SDS011;5500;49.886;8.074;2022-08-21T03:20:40;8.30;;;3.17;;
10894;SDS011;5500;49.886;8.074;2022-08-21T03:23:08;7.57;;;3.33;;
10894;SDS011;5500;49.886;8.074;2022-08-21T03:25:42;6.93;;;2.90;;
10894;SDS011;5500;49.886;8.074;2022-08-21T03:28:12;7.43;;;3.00;;
10894;SDS011;5500;49.886;8.074;2022-08-21T03:30:44;6.20;;;3.37;;
10894;SDS011;5500;49.886;8.074;2022-08-21T03:33:13;4.73;;;2.60;;
10894;SDS011;5500;49.886;8.074;2022-08-21T03:35:41;4.77;;;3.10;;
10894;SDS011;5500;49.886;8.074;2022-08-21T03:38:09;6.00;;;2.83;;
10894;SDS011;5500;49.886;8.074;2022-08-21T03:40:39;6.53;;;3.20;;
10894;SDS011;5500;49.886;8.074;2022-08-21T03:43:06;5.73;;;2.83;;
10894;SDS011;5500;49.886;8.074;2022-08-21T03:45:36;7.53;;;3.03;;
10894;SDS011;5500;49.886;8.074;2022-08-21T03:48:07;6.47;;;3.10;;
10894;SDS011;5500;49.886;8.074;2022-08-21T03:50:36;6.37;;;2.73;;
10894;SDS011;5500;49.886;8.074;2022-08-21T03:53:07;8.77;;;2.80;;
10894;SDS011;5500;49.886;8.074;2022-08-21T03:55:43;5.63;;;3.00;;
10894;SDS011;5500;49.886;8.074;2022-08-21T03:58:12;7.47;;;3.10;;
10894;SDS011;5500;49.886;8.074;2022-08-21T05:46:40;7.47;;;3.40;;
10894;SDS011;5500;49.886;8.074;2022-08-21T05:49:08;6.40;;;2.87;;
10894;SDS011;5500;49.886;8.074;2022-08-21T05:51:36;6.60;;;3.10;;
10894;SDS011;5500;49.886;8.074;2022-08-21T05:54:04;8.47;;;3.30;;
10894;SDS011;5500;49.886;8.074;2022-08-21T05:56:32;7.47;;;3.47;;
10894;SDS011;5500;49.886;8.074;2022-08-21T05:58:59;6.43;;;3.27;;
10894;SDS011;5500;49.886;8.074;2022-08-21T06:01:33;5.33;;;3.20;;
10894;SDS011;5500;49.886;8.074;2022-08-21T06:04:03;6.03;;;3.13;;
10894;SDS011;5500;49.886;8.074;2022-08-21T06:06:31;7.00;;;3.80;;
10894;SDS011;5500;49.886;8.074;2022-08-21T06:08:59;8.10;;;3.67;;
10894;SDS011;5500;49.886;8.074;2022-08-21T06:11:27;7.43;;;3.77;;
10894;SDS011;5500;49.886;8.074;2022-08-21T06:13:54;8.60;;;3.23;;
10894;SDS011;5500;49.886;8.074;2022-08-21T06:16:22;5.00;;;2.77;;
10894;SDS011;5500;49.886;8.074;2022-08-21T06:18:52;6.93;;;3.43;;
10894;SDS011;5500;49.886;8.074;2022-08-21T06:21:26;6.07;;;3.23;;
10894;SDS011;5500;49.886;8.074;2022-08-21T06:23:53;6.27;;;3.30;;
10894;SDS011;5500;49.886;8.074;2022-08-21T06:26:21;5.20;;;3.17;;
10894;SDS011;5500;49.886;8.074;2022-08-21T06:28:49;4.80;;;2.97;;
10894;SDS011;5500;49.886;8.074;2022-08-21T06:31:18;8.20;;;3.17;;
10894;SDS011;5500;49.886;8.074;2022-08-21T06:33:47;7.93;;;3.33;;
10894;SDS011;5500;49.886;8.074;2022-08-21T06:36:15;9.83;;;3.83;;
10894;SDS011;5500;49.886;8.074;2022-08-21T06:38:44;6.57;;;3.60;;
10894;SDS011;5500;49.886;8.074;2022-08-21T06:41:17;4.37;;;2.90;;
10894;SDS011;5500;49.886;8.074;2022-08-21T06:43:51;8.67;;;3.57;;
10894;SDS011;5500;49.886;8.074;2022-08-21T06:46:19;6.50;;;2.80;;
10894;SDS011;5500;49.886;8.074;2022-08-21T06:48:47;8.20;;;3.40;;
10894;SDS011;5500;49.886;8.074;2022-08-21T06:51:14;9.37;;;4.00;;
10894;SDS011;5500;49.886;8.074;2022-08-21T06:53:42;7.13;;;3.43;;
10894;SDS011;5500;49.886;8.074;2022-08-21T06:56:11;8.03;;;4.10;;
10894;SDS011;5500;49.886;8.074;2022-08-21T06:58:40;5.40;;;3.60;;
10894;SDS011;5500;49.886;8.074;2022-08-21T07:01:07;10.97;;;3.90;;
10894;SDS011;5500;49.886;8.074;2022-08-21T07:03:36;11.33;;;3.83;;
10894;SDS011;5500;49.886;8.074;2022-08-21T07:06:07;8.60;;;3.30;;
10894;SDS011;5500;49.886;8.074;2022-08-21T07:08:35;8.93;;;4.30;;
10894;SDS011;5500;49.886;8.074;2022-08-21T07:11:06;8.87;;;4.03;;
10894;SDS011;5500;49.886;8.074;2022-08-21T07:13:38;10.57;;;3.70;;
10894;SDS011;5500;49.886;8.074;2022-08-21T07:16:06;5.93;;;3.47;;
10894;SDS011;5500;49.886;8.074;2022-08-21T07:18:34;11.03;;;3.83;;
10894;SDS011;5500;49.886;8.074;2022-08-21T07:21:02;8.47;;;3.83;;
10894;SDS011;5500;49.886;8.074;2022-08-21T07:23:31;8.23;;;4.03;;
10894;SDS011;5500;49.886;8.074;2022-08-21T07:25:59;12.30;;;4.23;;
10894;SDS011;5500;49.886;8.074;2022-08-21T07:28:27;5.23;;;3.20;;
10894;SDS011;5500;49.886;8.074;2022-08-21T07:30:57;7.37;;;3.70;;
10894;SDS011;5500;49.886;8.074;2022-08-21T07:33:26;7.33;;;3.70;;
10894;SDS011;5500;49.886;8.074;2022-08-21T07:35:56;5.93;;;3.60;;
10894;SDS011;5500;49.886;8.074;2022-08-21T07:38:24;5.93;;;3.47;;
10894;SDS011;5500;49.886;8.074;2022-08-21T07:40:53;5.33;;;3.57;;
10894;SDS011;5500;49.886;8.074;2022-08-21T07:43:23;8.20;;;3.70;;
10894;SDS011;5500;49.886;8.074;2022-08-21T07:45:50;6.73;;;3.70;;
10894;SDS011;5500;49.886;8.074;2022-08-21T07:48:20;11.17;;;3.80;;
10894;SDS011;5500;49.886;8.074;2022-08-21T07:50:48;9.17;;;4.43;;
10894;SDS011;5500;49.886;8.074;2022-08-21T07:53:17;7.53;;;4.07;;
10894;SDS011;5500;49.886;8.074;2022-08-21T07:55:45;8.23;;;3.27;;
10894;SDS011;5500;49.886;8.074;2022-08-21T07:58:12;7.83;;;3.97;;
10894;SDS011;5500;49.886;8.074;2022-08-21T08:00:40;5.40;;;3.73;;
10894;SDS011;5500;49.886;8.074;2022-08-21T08:03:08;7.70;;;4.20;;
10894;SDS011;5500;49.886;8.074;2022-08-21T08:05:37;8.37;;;3.80;;
10894;SDS011;5500;49.886;8.074;2022-08-21T08:08:06;5.70;;;3.50;;
10894;SDS011;5500;49.886;8.074;2022-08-21T08:10:33;9.80;;;4.60;;
10894;SDS011;5500;49.886;8.074;2022-08-21T08:13:02;11.77;;;4.60;;
10894;SDS011;5500;49.886;8.074;2022-08-21T08:15:29;7.67;;;4.17;;
10894;SDS011;5500;49.886;8.074;2022-08-21T08:18:02;7.60;;;4.07;;
10894;SDS011;5500;49.886;8.074;2022-08-21T08:20:30;13.97;;;4.73;;
10894;SDS011;5500;49.886;8.074;2022-08-21T08:23:00;8.47;;;4.47;;
10894;SDS011;5500;49.886;8.074;2022-08-21T08:25:28;10.30;;;4.53;;
10894;SDS011;5500;49.886;8.074;2022-08-21T08:28:02;10.37;;;4.03;;
10894;SDS011;5500;49.886;8.074;2022-08-21T08:30:43;10.07;;;4.40;;
10894;SDS011;5500;49.886;8.074;2022-08-21T08:33:11;6.70;;;4.23;;
10894;SDS011;5500;49.886;8.074;2022-08-21T08:35:39;12.03;;;4.03;;
10894;SDS011;5500;49.886;8.074;2022-08-21T08:38:09;11.97;;;4.30;;
10894;SDS011;5500;49.886;8.074;2022-08-21T08:40:39;5.70;;;3.90;;
10894;SDS011;5500;49.886;8.074;2022-08-21T08:43:10;5.83;;;3.63;;
10894;SDS011;5500;49.886;8.074;2022-08-21T08:45:40;8.00;;;3.60;;
10894;SDS011;5500;49.886;8.074;2022-08-21T08:48:11;7.97;;;3.97;;
10894;SDS011;5500;49.886;8.074;2022-08-21T08:50:45;9.27;;;3.80;;
10894;SDS011;5500;49.886;8.074;2022-08-21T08:53:19;8.00;;;3.60;;
10894;SDS011;5500;49.886;8.074;2022-08-21T08:55:50;9.37;;;3.40;;
10894;SDS011;5500;49.886;8.074;2022-08-21T08:58:20;7.23;;;3.40;;
10894;SDS011;5500;49.886;8.074;2022-08-21T09:00:51;4.83;;;2.90;;
10894;SDS011;5500;49.886;8.074;2022-08-21T09:03:20;8.13;;;3.53;;
10894;SDS011;5500;49.886;8.074;2022-08-21T09:05:50;10.03;;;3.50;;
10894;SDS011;5500;49.886;8.074;2022-08-21T09:08:29;8.03;;;3.57;;
10894;SDS011;5500;49.886;8.074;2022-08-21T09:11:10;11.20;;;4.10;;
10894;SDS011;5500;49.886;8.074;2022-08-21T09:13:44;7.63;;;3.47;;
10894;SDS011;5500;49.886;8.074;2022-08-21T09:16:20;6.90;;;3.83;;
10894;SDS011;5500;49.886;8.074;2022-08-21T09:18:54;6.67;;;3.67;;
10894;SDS011;5500;49.886;8.074;2022-08-21T09:21:31;6.17;;;3.70;;
10894;SDS011;5500;49.886;8.074;2022-08-21T09:24:08;6.37;;;3.33;;
10894;SDS011;5500;49.886;8.074;2022-08-21T09:26:47;5.90;;;3.17;;
10894;SDS011;5500;49.886;8.074;2022-08-21T09:29:20;11.80;;;3.70;;
10894;SDS011;5500;49.886;8.074;2022-08-21T09:31:50;5.33;;;2.77;;
10894;SDS011;5500;49.886;8.074;2022-08-21T09:34:24;7.07;;;3.90;;
10894;SDS011;5500;49.886;8.074;2022-08-21T09:36:53;5.93;;;3.30;;
10894;SDS011;5500;49.886;8.074;2022-08-21T09:39:25;4.80;;;3.23;;
10894;SDS011;5500;49.886;8.074;2022-08-21T09:41:55;9.87;;;3.47;;
10894;SDS011;5500;49.886;8.074;2022-08-21T09:44:25;7.70;;;3.47;;
10894;SDS011;5500;49.886;8.074;2022-08-21T09:46:53;6.97;;;3.50;;
10894;SDS011;5500;49.886;8.074;2022-08-21T09:49:28;8.73;;;3.00;;
10894;SDS011;5500;49.886;8.074;2022-08-21T09:51:56;5.63;;;2.83;;
10894;SDS011;5500;49.886;8.074;2022-08-21T09:54:28;7.57;;;3.47;;
10894;SDS011;5500;49.886;8.074;2022-08-21T09:56:58;5.18;;;3.00;;
10894;SDS011;5500;49.886;8.074;2022-08-21T09:59:44;4.77;;;3.03;;
10894;SDS011;5500;49.886;8.074;2022-08-21T10:02:20;6.68;;;3.50;;
10894;SDS011;5500;49.886;8.074;2022-08-21T10:04:51;6.65;;;2.72;;
10894;SDS011;5500;49.886;8.074;2022-08-21T10:07:20;6.43;;;3.08;;
10894;SDS011;5500;49.886;8.074;2022-08-21T10:09:59;5.25;;;2.75;;
10894;SDS011;5500;49.886;8.074;2022-08-21T10:12:29;5.60;;;2.75;;
10894;SDS011;5500;49.886;8.074;2022-08-21T10:15:06;7.60;;;3.22;;
10894;SDS011;5500;49.886;8.074;2022-08-21T10:17:43;6.63;;;3.08;;
10894;SDS011;5500;49.886;8.074;2022-08-21T10:20:20;6.45;;;3.13;;
10894;SDS011;5500;49.886;8.074;2022-08-21T10:22:53;5.55;;;3.08;;
10894;SDS011;5500;49.886;8.074;2022-08-21T10:25:32;4.38;;;2.80;;
10894;SDS011;5500;49.886;8.074;2022-08-21T10:28:05;6.40;;;3.15;;
10894;SDS011;5500;49.886;8.074;2022-08-21T10:30:41;5.90;;;3.03;;
10894;SDS011;5500;49.886;8.074;2022-08-21T10:33:22;6.28;;;3.20;;
10894;SDS011;5500;49.886;8.074;2022-08-21T10:35:57;7.53;;;3.10;;
10894;SDS011;5500;49.886;8.074;2022-08-21T10:38:46;6.43;;;2.88;;
10894;SDS011;5500;49.886;8.074;2022-08-21T10:41:52;6.20;;;3.40;;
10894;SDS011;5500;49.886;8.074;2022-08-21T10:44:33;5.18;;;3.20;;
10894;SDS011;5500;49.886;8.074;2022-08-21T10:47:06;5.45;;;3.03;;
10894;SDS011;5500;49.886;8.074;2022-08-21T10:49:38;6.10;;;3.13;;
10894;SDS011;5500;49.886;8.074;2022-08-21T10:52:12;7.15;;;2.85;;
10894;SDS011;5500;49.886;8.074;2022-08-21T10:54:59;5.68;;;2.80;;
10894;SDS011;5500;49.886;8.074;2022-08-21T10:57:33;6.65;;;3.28;;
10894;SDS011;5500;49.886;8.074;2022-08-21T11:00:07;7.22;;;3.28;;
10894;SDS011;5500;49.886;8.074;2022-08-21T11:02:38;5.25;;;3.00;;
10894;SDS011;5500;49.886;8.074;2022-08-21T11:05:11;7.95;;;3.40;;
10894;SDS011;5500;49.886;8.074;2022-08-21T11:07:43;8.55;;;3.58;;
10894;SDS011;5500;49.886;8.074;2022-08-21T11:10:16;3.83;;;2.70;;
10894;SDS011;5500;49.886;8.074;2022-08-21T11:12:52;8.82;;;3.15;;
10894;SDS011;5500;49.886;8.074;2022-08-21T11:18:15;5.20;;;2.72;;
10894;SDS011;5500;49.886;8.074;2022-08-21T11:20:50;7.53;;;2.78;;
10894;SDS011;5500;49.886;8.074;2022-08-21T11:23:28;5.50;;;2.63;;
10894;SDS011;5500;49.886;8.074;2022-08-21T11:26:02;6.78;;;3.03;;
10894;SDS011;5500;49.886;8.074;2022-08-21T11:28:35;9.50;;;2.72;;
10894;SDS011;5500;49.886;8.074;2022-08-21T11:31:08;4.80;;;2.58;;
10894;SDS011;5500;49.886;8.074;2022-08-21T11:33:45;5.63;;;3.03;;
10894;SDS011;5500;49.886;8.074;2022-08-21T11:36:19;3.97;;;2.55;;
10894;SDS011;5500;49.886;8.074;2022-08-21T11:38:51;5.57;;;3.22;;
10894;SDS011;5500;49.886;8.074;2022-08-21T11:41:27;6.97;;;2.80;;
10894;SDS011;5500;49.886;8.074;2022-08-21T11:44:00;8.50;;;3.20;;
10894;SDS011;5500;49.886;8.074;2022-08-21T11:46:35;6.28;;;2.72;;
10894;SDS011;5500;49.886;8.074;2022-08-21T11:49:12;7.43;;;2.90;;
10894;SDS011;5500;49.886;8.074;2022-08-21T11:51:47;5.43;;;2.90;;
10894;SDS011;5500;49.886;8.074;2022-08-21T11:54:20;6.25;;;3.03;;
10894;SDS011;5500;49.886;8.074;2022-08-21T11:56:53;3.67;;;2.70;;
10894;SDS011;5500;49.886;8.074;2022-08-21T11:59:26;6.32;;;3.08;;
10894;SDS011;5500;49.886;8.074;2022-08-21T12:02:06;5.47;;;3.22;;
10894;SDS011;5500;49.886;8.074;2022-08-21T12:04:42;4.28;;;2.88;;
10894;SDS011;5500;49.886;8.074;2022-08-21T12:07:14;6.05;;;2.85;;
10894;SDS011;5500;49.886;8.074;2022-08-21T12:09:51;4.05;;;2.50;;
10894;SDS011;5500;49.886;8.074;2022-08-21T12:12:24;5.18;;;2.80;;
10894;SDS011;5500;49.886;8.074;2022-08-21T12:15:06;6.82;;;3.33;;
10894;SDS011;5500;49.886;8.074;2022-08-21T12:17:41;4.38;;;2.75;;
10894;SDS011;5500;49.886;8.074;2022-08-21T12:20:23;4.80;;;2.67;;
10894;SDS011;5500;49.886;8.074;2022-08-21T12:22:55;6.05;;;2.80;;
10894;SDS011;5500;49.886;8.074;2022-08-21T12:25:35;5.38;;;2.65;;
10894;SDS011;5500;49.886;8.074;2022-08-21T12:28:07;6.28;;;2.70;;
10894;SDS011;5500;49.886;8.074;2022-08-21T12:30:39;4.80;;;2.60;;
10894;SDS011;5500;49.886;8.074;2022-08-21T12:33:18;5.70;;;2.83;;
10894;SDS011;5500;49.886;8.074;2022-08-21T12:35:49;4.47;;;2.60;;
10894;SDS011;5500;49.886;8.074;2022-08-21T12:38:20;4.32;;;2.63;;
10894;SDS011;5500;49.886;8.074;2022-08-21T12:40:50;4.05;;;2.35;;
10894;SDS011;5500;49.886;8.074;2022-08-21T12:43:21;5.05;;;2.47;;
10894;SDS011;5500;49.886;8.074;2022-08-21T12:45:54;5.13;;;2.72;;
10894;SDS011;5500;49.886;8.074;2022-08-21T12:48:23;8.23;;;2.65;;
10894;SDS011;5500;49.886;8.074;2022-08-21T12:50:55;3.90;;;2.40;;
10894;SDS011;5500;49.886;8.074;2022-08-21T12:53:27;4.68;;;2.55;;
10894;SDS011;5500;49.886;8.074;2022-08-21T12:56:00;4.90;;;2.75;;
10894;SDS011;5500;49.886;8.074;2022-08-21T12:58:30;5.75;;;2.83;;
10894;SDS011;5500;49.886;8.074;2022-08-21T13:01:03;4.40;;;2.70;;
10894;SDS011;5500;49.886;8.074;2022-08-21T13:03:33;3.55;;;2.58;;
10894;SDS011;5500;49.886;8.074;2022-08-21T13:06:03;3.85;;;2.50;;
10894;SDS011;5500;49.886;8.074;2022-08-21T13:08:31;3.17;;;2.35;;
10894;SDS011;5500;49.886;8.074;2022-08-21T13:11:06;4.07;;;2.40;;
10894;SDS011;5500;49.886;8.074;2022-08-21T13:13:40;5.57;;;2.78;;
10894;SDS011;5500;49.886;8.074;2022-08-21T13:16:20;5.53;;;2.80;;
10894;SDS011;5500;49.886;8.074;2022-08-21T13:18:55;4.47;;;2.42;;
10894;SDS011;5500;49.886;8.074;2022-08-21T13:21:27;3.95;;;2.35;;
10894;SDS011;5500;49.886;8.074;2022-08-21T13:24:13;4.35;;;2.70;;
10894;SDS011;5500;49.886;8.074;2022-08-21T13:27:14;6.60;;;2.60;;
10894;SDS011;5500;49.886;8.074;2022-08-21T13:29:45;4.15;;;2.35;;
10894;SDS011;5500;49.886;8.074;2022-08-21T13:32:21;5.38;;;2.58;;
10894;SDS011;5500;49.886;8.074;2022-08-21T13:34:52;4.32;;;2.35;;
10894;SDS011;5500;49.886;8.074;2022-08-21T13:37:20;4.35;;;2.50;;
10894;SDS011;5500;49.886;8.074;2022-08-21T13:39:50;5.05;;;2.95;;
10894;SDS011;5500;49.886;8.074;2022-08-21T13:42:19;4.03;;;2.65;;
10894;SDS011;5500;49.886;8.074;2022-08-21T13:44:50;3.08;;;2.10;;
10894;SDS011;5500;49.886;8.074;2022-08-21T13:47:19;3.40;;;2.33;;
10894;SDS011;5500;49.886;8.074;2022-08-21T13:49:49;4.00;;;2.50;;
10894;SDS011;5500;49.886;8.074;2022-08-21T13:52:25;5.13;;;2.60;;
10894;SDS011;5500;49.886;8.074;2022-08-21T13:54:54;5.22;;;2.55;;
10894;SDS011;5500;49.886;8.074;2022-08-21T13:57:25;3.05;;;2.10;;
10894;SDS011;5500;49.886;8.074;2022-08-21T14:00:09;5.30;;;2.65;;
10894;SDS011;5500;49.886;8.074;2022-08-21T14:02:40;3.95;;;2.08;;
10894;SDS011;5500;49.886;8.074;2022-08-21T14:05:14;5.18;;;2.17;;
10894;SDS011;5500;49.886;8.074;2022-08-21T14:07:43;4.63;;;2.38;;
10894;SDS011;5500;49.886;8.074;2022-08-21T14:10:13;3.75;;;2.28;;
10894;SDS011;5500;49.886;8.074;2022-08-21T14:12:47;3.92;;;2.40;;
10894;SDS011;5500;49.886;8.074;2022-08-21T14:15:17;5.88;;;2.45;;
10894;SDS011;5500;49.886;8.074;2022-08-21T14:17:47;4.97;;;2.28;;
10894;SDS011;5500;49.886;8.074;2022-08-21T14:20:25;3.28;;;2.03;;
10894;SDS011;5500;49.886;8.074;2022-08-21T14:22:54;5.15;;;2.47;;
10894;SDS011;5500;49.886;8.074;2022-08-21T14:25:27;3.97;;;1.73;;
10894;SDS011;5500;49.886;8.074;2022-08-21T14:27:57;3.45;;;1.95;;
10894;SDS011;5500;49.886;8.074;2022-08-21T14:30:37;4.53;;;2.10;;
10894;SDS011;5500;49.886;8.074;2022-08-21T14:33:11;2.72;;;1.90;;
10894;SDS011;5500;49.886;8.074;2022-08-21T14:35:40;3.70;;;1.95;;
10894;SDS011;5500;49.886;8.074;2022-08-21T14:38:12;4.55;;;2.17;;
10894;SDS011;5500;49.886;8.074;2022-08-21T14:40:40;5.15;;;2.45;;
10894;SDS011;5500;49.886;8.074;2022-08-21T14:43:09;2.60;;;2.13;;
10894;SDS011;5500;49.886;8.074;2022-08-21T14:45:37;3.92;;;2.17;;
10894;SDS011;5500;49.886;8.074;2022-08-21T14:48:06;4.93;;;2.30;;
10894;SDS011;5500;49.886;8.074;2022-08-21T14:50:36;4.30;;;2.50;;
10894;SDS011;5500;49.886;8.074;2022-08-21T14:53:04;5.72;;;2.15;;
10894;SDS011;5500;49.886;8.074;2022-08-21T14:55:36;5.07;;;2.35;;
10894;SDS011;5500;49.886;8.074;2022-08-21T14:58:19;4.32;;;2.30;;
10894;SDS011;5500;49.886;8.074;2022-08-21T15:00:46;4.97;;;2.30;;
10894;SDS011;5500;49.886;8.074;2022-08-21T15:03:14;4.18;;;2.63;;
10894;SDS011;5500;49.886;8.074;2022-08-21T15:05:43;3.60;;;2.30;;
10894;SDS011;5500;49.886;8.074;2022-08-21T15:08:11;3.67;;;2.33;;
10894;SDS011;5500;49.886;8.074;2022-08-21T15:10:39;4.00;;;2.17;;
10894;SDS011;5500;49.886;8.074;2022-08-21T15:13:27;2.70;;;2.28;;
10894;SDS011;5500;49.886;8.074;2022-08-21T15:15:55;4.00;;;2.33;;
10894;SDS011;5500;49.886;8.074;2022-08-21T15:18:24;6.80;;;2.35;;
10894;SDS011;5500;49.886;8.074;2022-08-21T15:20:54;4.03;;;2.00;;
10894;SDS011;5500;49.886;8.074;2022-08-21T15:23:22;3.72;;;2.40;;
10894;SDS011;5500;49.886;8.074;2022-08-21T15:25:50;2.80;;;2.13;;
10894;SDS011;5500;49.886;8.074;2022-08-21T15:28:19;4.05;;;2.20;;
10894;SDS011;5500;49.886;8.074;2022-08-21T15:30:48;4.55;;;2.42;;
10894;SDS011;5500;49.886;8.074;2022-08-21T15:33:18;3.97;;;2.13;;
10894;SDS011;5500;49.886;8.074;2022-08-21T15:35:46;4.15;;;2.42;;
10894;SDS011;5500;49.886;8.074;2022-08-21T15:38:15;2.72;;;2.25;;
10894;SDS011;5500;49.886;8.074;2022-08-21T15:40:42;4.78;;;2.30;;
10894;SDS011;5500;49.886;8.074;2022-08-21T15:43:20;5.32;;;2.28;;
10894;SDS011;5500;49.886;8.074;2022-08-21T15:45:55;2.65;;;2.08;;
10894;SDS011;5500;49.886;8.074;2022-08-21T15:48:24;3.67;;;2.15;;
10894;SDS011;5500;49.886;8.074;2022-08-21T15:50:52;3.17;;;2.35;;
10894;SDS011;5500;49.886;8.074;2022-08-21T15:53:21;3.13;;;2.15;;
10894;SDS011;5500;49.886;8.074;2022-08-21T15:55:49;5.03;;;2.25;;
10894;SDS011;5500;49.886;8.074;2022-08-21T15:58:17;3.42;;;2.13;;
10894;SDS011;5500;49.886;8.074;2022-08-21T16:00:46;3.92;;;2.30;;
10894;SDS011;5500;49.886;8.074;2022-08-21T16:03:14;3.28;;;2.45;;
10894;SDS011;5500;49.886;8.074;2022-08-21T16:05:45;2.72;;;2.00;;
10894;SDS011;5500;49.886;8.074;2022-08-21T16:08:14;3.45;;;2.45;;
10894;SDS011;5500;49.886;8.074;2022-08-21T16:10:43;3.97;;;2.00;;
10894;SDS011;5500;49.886;8.074;2022-08-21T16:13:12;2.95;;;2.20;;
10894;SDS011;5500;49.886;8.074;2022-08-21T16:15:43;4.63;;;2.47;;
10894;SDS011;5500;49.886;8.074;2022-08-21T16:18:10;4.78;;;2.30;;
10894;SDS011;5500;49.886;8.074;2022-08-21T16:20:38;3.13;;;2.10;;
10894;SDS011;5500;49.886;8.074;2022-08-21T16:23:06;3.10;;;2.10;;
10894;SDS011;5500;49.886;8.074;2022-08-21T16:25:34;2.75;;;2.05;;
10894;SDS011;5500;49.886;8.074;2022-08-21T16:28:07;3.28;;;2.53;;
10894;SDS011;5500;49.886;8.074;2022-08-21T16:30:39;3.97;;;2.50;;
10894;SDS011;5500;49.886;8.074;2022-08-21T16:33:06;4.80;;;2.20;;
10894;SDS011;5500;49.886;8.074;2022-08-21T16:35:38;3.60;;;2.15;;
10894;SDS011;5500;49.886;8.074;2022-08-21T16:38:06;2.45;;;1.90;;
10894;SDS011;5500;49.886;8.074;2022-08-21T16:40:34;5.50;;;2.45;;
10894;SDS011;5500;49.886;8.074;2022-08-21T16:43:02;3.28;;;1.83;;
10894;SDS011;5500;49.886;8.074;2022-08-21T16:45:31;4.25;;;1.92;;
10894;SDS011;5500;49.886;8.074;2022-08-21T16:47:59;4.43;;;2.00;;
10894;SDS011;5500;49.886;8.074;2022-08-21T16:50:29;5.13;;;2.08;;
10894;SDS011;5500;49.886;8.074;2022-08-21T16:52:57;3.05;;;2.08;;
10894;SDS011;5500;49.886;8.074;2022-08-21T16:55:25;3.92;;;2.30;;
10894;SDS011;5500;49.886;8.074;2022-08-21T16:57:53;2.95;;;1.98;;
10894;SDS011;5500;49.886;8.074;2022-08-21T17:00:21;3.88;;;2.00;;
10894;SDS011;5500;49.886;8.074;2022-08-21T17:02:52;4.05;;;2.10;;
10894;SDS011;5500;49.886;8.074;2022-08-21T17:05:21;3.15;;;1.73;;
10894;SDS011;5500;49.886;8.074;2022-08-21T17:07:49;4.65;;;2.30;;
10894;SDS011;5500;49.886;8.074;2022-08-21T17:10:16;4.50;;;2.20;;
10894;SDS011;5500;49.886;8.074;2022-08-21T17:12:46;4.72;;;2.30;;